Etusivu
METAR-TAF:

METAR-TAF

Lentoasemat :

Madison, Wisconsin, Yhdysvallat

Leveyspiiri: 43-08-26N, Pituuspiiri: 089-20-43W, korkeus merenpinnasta: 262 m

Tämänhetkinen sää

Tämä raportti tehtiin 31 minuuttia sitten, kello 01.53 UTC
Tuuli 3 kn lännestä
Lämpötila -2°C
Kosteus 74%
Ilmanpaine 1020 hPa
Näkyvyys: 16.1 km
selkeää

METAR: KMSN 280153Z 27003KT 10SM CLR M02/M06 A3012 RMK AO2 SLP212 T10221056

Aika: 20:24 (02:24 UTC)

Sääennuste

Tämä raportti tehtiin 2 tuntia ja 42 minuuttia sitten, kello 23.42 UTC
Ennuste voimassa 28. päivästä klo 00 UTC - 28. päivään klo 24 UTC
Tuuli 5 kn lännestä
Näkyvyys: 10 km
selkeää
From 28. päivästä klo 1500 UTC
Tuuli 11 kn lounaasta puuskistuen 17 kn:hen
Näkyvyys: 10 km
selkeää

TAF: KMSN 272342Z 2800/2824 28005KT P6SM SKC FM281500 23011G17KT P6SM SKC

Säähavainnot ja -ennusteet yli 4000 lentoasemalta (METAR- ja TAF-raportit).

Käytössä olevat sääasemat on merkitty karttaan keltaisilla ja punaisilla pisteillä.

Aseta hiiri pisteen päälle nähdäksesi sääaseman nimen.

Klikkaa sitten nähdäksesi säähavainnot ja -ennusteet.

Kartan vaihtaminen: klikkaa mustalla rastilla varustettuja vihreitä pisteitä, niin voit zoomata sisään; viivalla varustettua vihreää pistettä, niin voit zoomata ulos tai vihreitä nuolia, niin pääset viereisille kartoille.


METAR-TAF: